sensor_id;sensor_type;location;lat;lon;timestamp;P1;durP1;ratioP1;P2;durP2;ratioP2
42082;SDS011;27745;57.100;-2.920;2022-07-23T00:00:48;0.80;;;0.80;;
42082;SDS011;27745;57.100;-2.920;2022-07-23T00:03:13;0.73;;;0.73;;
42082;SDS011;27745;57.100;-2.920;2022-07-23T00:05:39;1.02;;;0.70;;
42082;SDS011;27745;57.100;-2.920;2022-07-23T00:08:05;0.65;;;0.65;;
42082;SDS011;27745;57.100;-2.920;2022-07-23T00:10:32;0.63;;;0.63;;
42082;SDS011;27745;57.100;-2.920;2022-07-23T00:12:58;2.20;;;0.77;;
42082;SDS011;27745;57.100;-2.920;2022-07-23T00:15:23;0.75;;;0.75;;
42082;SDS011;27745;57.100;-2.920;2022-07-23T00:17:49;1.25;;;0.63;;
42082;SDS011;27745;57.100;-2.920;2022-07-23T00:20:15;0.75;;;0.73;;
42082;SDS011;27745;57.100;-2.920;2022-07-23T00:22:50;0.80;;;0.80;;
42082;SDS011;27745;57.100;-2.920;2022-07-23T00:25:19;0.50;;;0.50;;
42082;SDS011;27745;57.100;-2.920;2022-07-23T00:27:45;0.80;;;0.80;;
42082;SDS011;27745;57.100;-2.920;2022-07-23T00:30:11;0.70;;;0.70;;
42082;SDS011;27745;57.100;-2.920;2022-07-23T00:32:50;2.20;;;0.85;;
42082;SDS011;27745;57.100;-2.920;2022-07-23T00:35:19;0.83;;;0.83;;
42082;SDS011;27745;57.100;-2.920;2022-07-23T00:37:45;0.63;;;0.63;;
42082;SDS011;27745;57.100;-2.920;2022-07-23T00:40:12;0.93;;;0.77;;
42082;SDS011;27745;57.100;-2.920;2022-07-23T00:42:38;1.75;;;0.98;;
42082;SDS011;27745;57.100;-2.920;2022-07-23T00:45:04;0.80;;;0.80;;
42082;SDS011;27745;57.100;-2.920;2022-07-23T00:47:30;1.65;;;0.80;;
42082;SDS011;27745;57.100;-2.920;2022-07-23T00:49:55;1.25;;;0.93;;
42082;SDS011;27745;57.100;-2.920;2022-07-23T00:52:21;0.77;;;0.65;;
42082;SDS011;27745;57.100;-2.920;2022-07-23T00:54:46;0.60;;;0.60;;
42082;SDS011;27745;57.100;-2.920;2022-07-23T00:57:12;0.60;;;0.60;;
42082;SDS011;27745;57.100;-2.920;2022-07-23T00:59:38;1.52;;;1.08;;
42082;SDS011;27745;57.100;-2.920;2022-07-23T01:02:04;0.85;;;0.70;;
42082;SDS011;27745;57.100;-2.920;2022-07-23T01:04:30;1.00;;;0.65;;
42082;SDS011;27745;57.100;-2.920;2022-07-23T01:06:55;0.57;;;0.57;;
42082;SDS011;27745;57.100;-2.920;2022-07-23T01:09:21;0.65;;;0.65;;
42082;SDS011;27745;57.100;-2.920;2022-07-23T01:11:46;0.60;;;0.60;;
42082;SDS011;27745;57.100;-2.920;2022-07-23T01:14:13;0.60;;;0.60;;
42082;SDS011;27745;57.100;-2.920;2022-07-23T01:16:40;0.80;;;0.73;;
42082;SDS011;27745;57.100;-2.920;2022-07-23T01:19:06;0.80;;;0.73;;
42082;SDS011;27745;57.100;-2.920;2022-07-23T01:21:34;0.70;;;0.70;;
42082;SDS011;27745;57.100;-2.920;2022-07-23T01:24:02;0.90;;;0.73;;
42082;SDS011;27745;57.100;-2.920;2022-07-23T01:26:27;2.75;;;0.80;;
42082;SDS011;27745;57.100;-2.920;2022-07-23T01:28:53;0.80;;;0.80;;
42082;SDS011;27745;57.100;-2.920;2022-07-23T01:31:18;1.13;;;1.02;;
42082;SDS011;27745;57.100;-2.920;2022-07-23T01:33:45;1.20;;;0.85;;
42082;SDS011;27745;57.100;-2.920;2022-07-23T01:36:10;0.63;;;0.63;;
42082;SDS011;27745;57.100;-2.920;2022-07-23T01:38:36;0.95;;;0.75;;
42082;SDS011;27745;57.100;-2.920;2022-07-23T01:41:01;0.77;;;0.73;;
42082;SDS011;27745;57.100;-2.920;2022-07-23T01:43:27;0.80;;;0.80;;
42082;SDS011;27745;57.100;-2.920;2022-07-23T01:45:52;0.80;;;0.80;;
42082;SDS011;27745;57.100;-2.920;2022-07-23T01:48:18;0.60;;;0.60;;
42082;SDS011;27745;57.100;-2.920;2022-07-23T01:50:43;0.70;;;0.70;;
42082;SDS011;27745;57.100;-2.920;2022-07-23T01:53:11;0.70;;;0.70;;
42082;SDS011;27745;57.100;-2.920;2022-07-23T01:55:37;0.98;;;0.82;;
42082;SDS011;27745;57.100;-2.920;2022-07-23T01:58:02;0.73;;;0.70;;
42082;SDS011;27745;57.100;-2.920;2022-07-23T02:00:27;0.90;;;0.90;;
42082;SDS011;27745;57.100;-2.920;2022-07-23T02:02:53;1.50;;;0.77;;
42082;SDS011;27745;57.100;-2.920;2022-07-23T02:05:19;0.65;;;0.65;;
42082;SDS011;27745;57.100;-2.920;2022-07-23T02:07:44;1.13;;;0.70;;
42082;SDS011;27745;57.100;-2.920;2022-07-23T02:10:10;0.70;;;0.70;;
42082;SDS011;27745;57.100;-2.920;2022-07-23T02:12:35;1.95;;;0.88;;
42082;SDS011;27745;57.100;-2.920;2022-07-23T02:15:01;2.78;;;0.60;;
42082;SDS011;27745;57.100;-2.920;2022-07-23T02:17:27;2.45;;;0.70;;
42082;SDS011;27745;57.100;-2.920;2022-07-23T02:19:52;0.95;;;0.85;;
42082;SDS011;27745;57.100;-2.920;2022-07-23T02:22:18;1.05;;;0.95;;
42082;SDS011;27745;57.100;-2.920;2022-07-23T02:24:43;0.80;;;0.80;;
42082;SDS011;27745;57.100;-2.920;2022-07-23T02:27:08;0.98;;;0.80;;
42082;SDS011;27745;57.100;-2.920;2022-07-23T02:29:34;0.75;;;0.65;;
42082;SDS011;27745;57.100;-2.920;2022-07-23T02:31:59;0.85;;;0.85;;
42082;SDS011;27745;57.100;-2.920;2022-07-23T02:34:25;1.05;;;0.80;;
42082;SDS011;27745;57.100;-2.920;2022-07-23T02:36:50;1.70;;;0.90;;
42082;SDS011;27745;57.100;-2.920;2022-07-23T02:39:16;0.68;;;0.68;;
42082;SDS011;27745;57.100;-2.920;2022-07-23T02:41:41;0.90;;;0.80;;
42082;SDS011;27745;57.100;-2.920;2022-07-23T02:44:07;0.68;;;0.68;;
42082;SDS011;27745;57.100;-2.920;2022-07-23T02:46:32;1.65;;;0.80;;
42082;SDS011;27745;57.100;-2.920;2022-07-23T02:48:57;0.80;;;0.73;;
42082;SDS011;27745;57.100;-2.920;2022-07-23T02:51:23;3.08;;;0.90;;
42082;SDS011;27745;57.100;-2.920;2022-07-23T02:53:48;0.95;;;0.88;;
42082;SDS011;27745;57.100;-2.920;2022-07-23T02:56:14;2.08;;;0.80;;
42082;SDS011;27745;57.100;-2.920;2022-07-23T02:58:39;0.98;;;0.80;;
42082;SDS011;27745;57.100;-2.920;2022-07-23T03:01:05;1.00;;;0.90;;
42082;SDS011;27745;57.100;-2.920;2022-07-23T03:03:30;0.70;;;0.70;;
42082;SDS011;27745;57.100;-2.920;2022-07-23T03:05:56;1.52;;;1.00;;
42082;SDS011;27745;57.100;-2.920;2022-07-23T03:08:22;1.15;;;0.90;;
42082;SDS011;27745;57.100;-2.920;2022-07-23T03:10:47;1.10;;;0.80;;
42082;SDS011;27745;57.100;-2.920;2022-07-23T03:13:13;1.42;;;0.90;;
42082;SDS011;27745;57.100;-2.920;2022-07-23T03:15:38;0.80;;;0.80;;
42082;SDS011;27745;57.100;-2.920;2022-07-23T03:18:04;0.80;;;0.80;;
42082;SDS011;27745;57.100;-2.920;2022-07-23T03:20:29;0.90;;;0.90;;
42082;SDS011;27745;57.100;-2.920;2022-07-23T03:22:55;0.80;;;0.80;;
42082;SDS011;27745;57.100;-2.920;2022-07-23T03:25:20;1.35;;;1.27;;
42082;SDS011;27745;57.100;-2.920;2022-07-23T03:27:46;1.02;;;0.90;;
42082;SDS011;27745;57.100;-2.920;2022-07-23T03:30:11;0.80;;;0.75;;
42082;SDS011;27745;57.100;-2.920;2022-07-23T03:32:37;2.55;;;0.68;;
42082;SDS011;27745;57.100;-2.920;2022-07-23T03:35:03;0.80;;;0.80;;
42082;SDS011;27745;57.100;-2.920;2022-07-23T03:37:29;1.02;;;0.90;;
42082;SDS011;27745;57.100;-2.920;2022-07-23T03:39:54;1.42;;;0.98;;
42082;SDS011;27745;57.100;-2.920;2022-07-23T03:42:20;0.70;;;0.70;;
42082;SDS011;27745;57.100;-2.920;2022-07-23T03:44:45;2.95;;;0.80;;
42082;SDS011;27745;57.100;-2.920;2022-07-23T03:47:11;1.60;;;0.90;;
42082;SDS011;27745;57.100;-2.920;2022-07-23T03:49:36;1.42;;;0.80;;
42082;SDS011;27745;57.100;-2.920;2022-07-23T03:52:02;5.15;;;1.10;;
42082;SDS011;27745;57.100;-2.920;2022-07-23T03:54:27;1.35;;;1.00;;
42082;SDS011;27745;57.100;-2.920;2022-07-23T03:56:53;0.90;;;0.90;;
42082;SDS011;27745;57.100;-2.920;2022-07-23T03:59:19;1.15;;;0.90;;
42082;SDS011;27745;57.100;-2.920;2022-07-23T04:01:44;0.95;;;0.95;;
42082;SDS011;27745;57.100;-2.920;2022-07-23T04:04:10;1.05;;;0.95;;
42082;SDS011;27745;57.100;-2.920;2022-07-23T04:06:35;0.80;;;0.80;;
42082;SDS011;27745;57.100;-2.920;2022-07-23T04:09:01;1.77;;;1.02;;
42082;SDS011;27745;57.100;-2.920;2022-07-23T04:11:27;0.75;;;0.65;;
42082;SDS011;27745;57.100;-2.920;2022-07-23T04:13:53;0.80;;;0.80;;
42082;SDS011;27745;57.100;-2.920;2022-07-23T04:16:18;0.60;;;0.60;;
42082;SDS011;27745;57.100;-2.920;2022-07-23T04:18:44;0.70;;;0.70;;
42082;SDS011;27745;57.100;-2.920;2022-07-23T04:21:09;1.15;;;1.02;;
42082;SDS011;27745;57.100;-2.920;2022-07-23T04:23:35;0.85;;;0.70;;
42082;SDS011;27745;57.100;-2.920;2022-07-23T04:26:00;0.95;;;0.95;;
42082;SDS011;27745;57.100;-2.920;2022-07-23T04:28:26;1.67;;;0.88;;
42082;SDS011;27745;57.100;-2.920;2022-07-23T04:30:51;3.50;;;0.88;;
42082;SDS011;27745;57.100;-2.920;2022-07-23T04:33:17;0.80;;;0.80;;
42082;SDS011;27745;57.100;-2.920;2022-07-23T04:35:42;0.90;;;0.80;;
42082;SDS011;27745;57.100;-2.920;2022-07-23T04:38:08;2.95;;;0.80;;
42082;SDS011;27745;57.100;-2.920;2022-07-23T04:40:33;1.17;;;1.00;;
42082;SDS011;27745;57.100;-2.920;2022-07-23T04:42:59;1.00;;;0.77;;
42082;SDS011;27745;57.100;-2.920;2022-07-23T04:45:24;0.63;;;0.63;;
42082;SDS011;27745;57.100;-2.920;2022-07-23T04:47:50;1.45;;;0.80;;
42082;SDS011;27745;57.100;-2.920;2022-07-23T04:50:15;1.38;;;0.82;;
42082;SDS011;27745;57.100;-2.920;2022-07-23T04:52:46;1.92;;;1.00;;
42082;SDS011;27745;57.100;-2.920;2022-07-23T04:55:15;0.70;;;0.70;;
42082;SDS011;27745;57.100;-2.920;2022-07-23T04:57:41;0.70;;;0.70;;
42082;SDS011;27745;57.100;-2.920;2022-07-23T05:00:07;0.75;;;0.75;;
42082;SDS011;27745;57.100;-2.920;2022-07-23T05:02:33;0.70;;;0.70;;
42082;SDS011;27745;57.100;-2.920;2022-07-23T05:04:59;0.88;;;0.80;;
42082;SDS011;27745;57.100;-2.920;2022-07-23T05:07:24;0.70;;;0.70;;
42082;SDS011;27745;57.100;-2.920;2022-07-23T05:09:50;0.70;;;0.70;;
42082;SDS011;27745;57.100;-2.920;2022-07-23T05:12:15;0.80;;;0.80;;
42082;SDS011;27745;57.100;-2.920;2022-07-23T05:14:41;1.20;;;1.00;;
42082;SDS011;27745;57.100;-2.920;2022-07-23T05:17:07;0.77;;;0.73;;
42082;SDS011;27745;57.100;-2.920;2022-07-23T05:19:33;1.98;;;0.77;;
42082;SDS011;27745;57.100;-2.920;2022-07-23T05:21:59;0.98;;;0.88;;
42082;SDS011;27745;57.100;-2.920;2022-07-23T05:24:24;1.90;;;1.10;;
42082;SDS011;27745;57.100;-2.920;2022-07-23T05:26:50;0.93;;;0.90;;
42082;SDS011;27745;57.100;-2.920;2022-07-23T05:29:15;0.98;;;0.90;;
42082;SDS011;27745;57.100;-2.920;2022-07-23T05:31:41;1.08;;;0.98;;
42082;SDS011;27745;57.100;-2.920;2022-07-23T05:34:06;1.17;;;1.08;;
42082;SDS011;27745;57.100;-2.920;2022-07-23T05:36:32;1.17;;;0.80;;
42082;SDS011;27745;57.100;-2.920;2022-07-23T05:38:58;0.55;;;0.55;;
42082;SDS011;27745;57.100;-2.920;2022-07-23T05:41:24;1.15;;;0.93;;
42082;SDS011;27745;57.100;-2.920;2022-07-23T05:43:49;1.38;;;1.20;;
42082;SDS011;27745;57.100;-2.920;2022-07-23T05:46:15;0.90;;;0.82;;
42082;SDS011;27745;57.100;-2.920;2022-07-23T05:48:41;1.42;;;1.08;;
42082;SDS011;27745;57.100;-2.920;2022-07-23T05:51:07;1.27;;;0.80;;
42082;SDS011;27745;57.100;-2.920;2022-07-23T05:53:33;1.10;;;0.82;;
42082;SDS011;27745;57.100;-2.920;2022-07-23T05:56:00;1.30;;;0.80;;
42082;SDS011;27745;57.100;-2.920;2022-07-23T05:58:26;0.80;;;0.80;;
42082;SDS011;27745;57.100;-2.920;2022-07-23T06:00:52;1.20;;;1.10;;
42082;SDS011;27745;57.100;-2.920;2022-07-23T06:03:17;0.82;;;0.82;;
42082;SDS011;27745;57.100;-2.920;2022-07-23T06:05:43;2.70;;;0.80;;
42082;SDS011;27745;57.100;-2.920;2022-07-23T06:08:08;1.40;;;1.20;;
42082;SDS011;27745;57.100;-2.920;2022-07-23T06:10:34;1.58;;;0.90;;
42082;SDS011;27745;57.100;-2.920;2022-07-23T06:12:59;0.70;;;0.70;;
42082;SDS011;27745;57.100;-2.920;2022-07-23T06:15:25;1.00;;;0.85;;
42082;SDS011;27745;57.100;-2.920;2022-07-23T06:17:50;1.05;;;0.90;;
42082;SDS011;27745;57.100;-2.920;2022-07-23T06:20:16;1.52;;;1.02;;
42082;SDS011;27745;57.100;-2.920;2022-07-23T06:22:41;0.70;;;0.70;;
42082;SDS011;27745;57.100;-2.920;2022-07-23T06:25:07;1.77;;;1.10;;
42082;SDS011;27745;57.100;-2.920;2022-07-23T06:27:33;1.48;;;1.20;;
42082;SDS011;27745;57.100;-2.920;2022-07-23T06:29:58;1.13;;;1.00;;
42082;SDS011;27745;57.100;-2.920;2022-07-23T06:32:24;0.98;;;0.88;;
42082;SDS011;27745;57.100;-2.920;2022-07-23T06:34:49;0.80;;;0.80;;
42082;SDS011;27745;57.100;-2.920;2022-07-23T06:37:15;1.00;;;0.90;;
42082;SDS011;27745;57.100;-2.920;2022-07-23T06:39:41;1.02;;;1.02;;
42082;SDS011;27745;57.100;-2.920;2022-07-23T06:42:07;0.80;;;0.80;;
42082;SDS011;27745;57.100;-2.920;2022-07-23T06:44:32;0.80;;;0.70;;
42082;SDS011;27745;57.100;-2.920;2022-07-23T06:46:58;1.20;;;1.10;;
42082;SDS011;27745;57.100;-2.920;2022-07-23T06:49:23;2.25;;;0.90;;
42082;SDS011;27745;57.100;-2.920;2022-07-23T06:51:49;1.50;;;0.77;;
42082;SDS011;27745;57.100;-2.920;2022-07-23T06:54:14;1.95;;;1.05;;
42082;SDS011;27745;57.100;-2.920;2022-07-23T06:56:40;1.33;;;0.80;;
42082;SDS011;27745;57.100;-2.920;2022-07-23T06:59:05;1.00;;;0.90;;
42082;SDS011;27745;57.100;-2.920;2022-07-23T07:01:31;1.98;;;0.70;;
42082;SDS011;27745;57.100;-2.920;2022-07-23T07:03:56;1.08;;;0.98;;
42082;SDS011;27745;57.100;-2.920;2022-07-23T07:06:22;0.80;;;0.80;;
42082;SDS011;27745;57.100;-2.920;2022-07-23T07:08:47;1.20;;;1.10;;
42082;SDS011;27745;57.100;-2.920;2022-07-23T07:11:13;0.82;;;0.82;;
42082;SDS011;27745;57.100;-2.920;2022-07-23T07:13:38;1.00;;;0.90;;
42082;SDS011;27745;57.100;-2.920;2022-07-23T07:16:04;0.93;;;0.85;;
42082;SDS011;27745;57.100;-2.920;2022-07-23T07:18:30;1.02;;;0.80;;
42082;SDS011;27745;57.100;-2.920;2022-07-23T07:20:56;0.90;;;0.90;;
42082;SDS011;27745;57.100;-2.920;2022-07-23T07:23:22;3.22;;;1.40;;
42082;SDS011;27745;57.100;-2.920;2022-07-23T07:25:48;2.30;;;1.08;;
42082;SDS011;27745;57.100;-2.920;2022-07-23T07:28:13;1.42;;;1.05;;
42082;SDS011;27745;57.100;-2.920;2022-07-23T07:30:38;1.17;;;1.08;;
42082;SDS011;27745;57.100;-2.920;2022-07-23T07:33:04;1.90;;;1.00;;
42082;SDS011;27745;57.100;-2.920;2022-07-23T07:35:30;0.73;;;0.70;;
42082;SDS011;27745;57.100;-2.920;2022-07-23T07:37:57;1.95;;;1.35;;
42082;SDS011;27745;57.100;-2.920;2022-07-23T07:40:24;2.20;;;0.95;;
42082;SDS011;27745;57.100;-2.920;2022-07-23T07:42:51;1.10;;;1.00;;
42082;SDS011;27745;57.100;-2.920;2022-07-23T07:45:19;0.60;;;0.60;;
42082;SDS011;27745;57.100;-2.920;2022-07-23T07:47:45;0.70;;;0.70;;
42082;SDS011;27745;57.100;-2.920;2022-07-23T07:50:11;1.02;;;0.93;;
42082;SDS011;27745;57.100;-2.920;2022-07-23T07:52:36;0.80;;;0.80;;
42082;SDS011;27745;57.100;-2.920;2022-07-23T07:55:06;1.00;;;0.90;;
42082;SDS011;27745;57.100;-2.920;2022-07-23T07:57:33;2.10;;;0.70;;
42082;SDS011;27745;57.100;-2.920;2022-07-23T07:59:59;2.55;;;1.15;;
42082;SDS011;27745;57.100;-2.920;2022-07-23T08:02:24;1.35;;;1.17;;
42082;SDS011;27745;57.100;-2.920;2022-07-23T08:04:50;2.22;;;1.10;;
42082;SDS011;27745;57.100;-2.920;2022-07-23T08:07:16;2.55;;;1.00;;
42082;SDS011;27745;57.100;-2.920;2022-07-23T08:09:42;1.80;;;1.60;;
42082;SDS011;27745;57.100;-2.920;2022-07-23T08:12:07;1.50;;;1.10;;
42082;SDS011;27745;57.100;-2.920;2022-07-23T08:14:33;1.88;;;1.20;;
42082;SDS011;27745;57.100;-2.920;2022-07-23T08:16:58;2.83;;;1.30;;
42082;SDS011;27745;57.100;-2.920;2022-07-23T08:19:24;5.28;;;1.40;;
42082;SDS011;27745;57.100;-2.920;2022-07-23T08:21:49;1.00;;;0.90;;
42082;SDS011;27745;57.100;-2.920;2022-07-23T08:24:15;1.25;;;0.80;;
42082;SDS011;27745;57.100;-2.920;2022-07-23T08:26:40;1.30;;;1.17;;
42082;SDS011;27745;57.100;-2.920;2022-07-23T08:29:06;1.58;;;1.02;;
42082;SDS011;27745;57.100;-2.920;2022-07-23T08:31:32;1.67;;;1.15;;
42082;SDS011;27745;57.100;-2.920;2022-07-23T08:33:58;1.30;;;1.20;;
42082;SDS011;27745;57.100;-2.920;2022-07-23T08:36:24;1.50;;;0.95;;
42082;SDS011;27745;57.100;-2.920;2022-07-23T08:38:52;1.17;;;1.08;;
42082;SDS011;27745;57.100;-2.920;2022-07-23T08:41:19;0.90;;;0.70;;
42082;SDS011;27745;57.100;-2.920;2022-07-23T08:43:44;3.30;;;1.52;;
42082;SDS011;27745;57.100;-2.920;2022-07-23T08:46:10;1.02;;;0.98;;
42082;SDS011;27745;57.100;-2.920;2022-07-23T08:48:38;2.50;;;1.10;;
42082;SDS011;27745;57.100;-2.920;2022-07-23T08:51:04;1.23;;;0.93;;
42082;SDS011;27745;57.100;-2.920;2022-07-23T08:53:30;1.75;;;1.00;;
42082;SDS011;27745;57.100;-2.920;2022-07-23T08:55:59;1.52;;;0.90;;
42082;SDS011;27745;57.100;-2.920;2022-07-23T08:58:29;1.27;;;0.88;;
42082;SDS011;27745;57.100;-2.920;2022-07-23T09:00:55;2.08;;;1.00;;
42082;SDS011;27745;57.100;-2.920;2022-07-23T09:03:23;1.25;;;0.80;;
42082;SDS011;27745;57.100;-2.920;2022-07-23T09:05:51;1.98;;;1.33;;
42082;SDS011;27745;57.100;-2.920;2022-07-23T09:08:20;0.90;;;0.90;;
42082;SDS011;27745;57.100;-2.920;2022-07-23T09:13:31;4.63;;;1.65;;
42082;SDS011;27745;57.100;-2.920;2022-07-23T09:16:07;1.50;;;1.38;;
42082;SDS011;27745;57.100;-2.920;2022-07-23T09:21:12;6.65;;;2.13;;
42082;SDS011;27745;57.100;-2.920;2022-07-23T09:23:43;3.55;;;2.72;;
42082;SDS011;27745;57.100;-2.920;2022-07-23T09:26:18;2.15;;;1.50;;
42082;SDS011;27745;57.100;-2.920;2022-07-23T09:28:50;1.98;;;1.23;;
42082;SDS011;27745;57.100;-2.920;2022-07-23T09:31:18;3.58;;;1.40;;
42082;SDS011;27745;57.100;-2.920;2022-07-23T09:33:44;1.15;;;1.05;;
42082;SDS011;27745;57.100;-2.920;2022-07-23T09:36:09;3.65;;;1.70;;
42082;SDS011;27745;57.100;-2.920;2022-07-23T09:38:35;2.75;;;1.77;;
42082;SDS011;27745;57.100;-2.920;2022-07-23T09:41:13;2.30;;;1.60;;
42082;SDS011;27745;57.100;-2.920;2022-07-23T09:43:39;3.35;;;1.70;;
42082;SDS011;27745;57.100;-2.920;2022-07-23T09:46:20;1.52;;;1.42;;
42082;SDS011;27745;57.100;-2.920;2022-07-23T09:48:48;1.30;;;1.13;;
42082;SDS011;27745;57.100;-2.920;2022-07-23T09:51:14;2.33;;;1.73;;
42082;SDS011;27745;57.100;-2.920;2022-07-23T09:53:43;2.10;;;1.30;;
42082;SDS011;27745;57.100;-2.920;2022-07-23T09:56:08;1.50;;;1.40;;
42082;SDS011;27745;57.100;-2.920;2022-07-23T09:58:37;4.22;;;2.13;;
42082;SDS011;27745;57.100;-2.920;2022-07-23T10:01:10;3.17;;;2.08;;
42082;SDS011;27745;57.100;-2.920;2022-07-23T10:03:37;1.85;;;1.30;;
42082;SDS011;27745;57.100;-2.920;2022-07-23T10:06:03;3.40;;;2.10;;
42082;SDS011;27745;57.100;-2.920;2022-07-23T10:08:29;1.98;;;1.55;;
42082;SDS011;27745;57.100;-2.920;2022-07-23T10:10:57;2.67;;;1.55;;
42082;SDS011;27745;57.100;-2.920;2022-07-23T10:13:23;2.20;;;1.75;;
42082;SDS011;27745;57.100;-2.920;2022-07-23T10:16:08;1.33;;;1.23;;
42082;SDS011;27745;57.100;-2.920;2022-07-23T10:18:33;3.30;;;1.55;;
42082;SDS011;27745;57.100;-2.920;2022-07-23T10:20:59;1.50;;;1.13;;
42082;SDS011;27745;57.100;-2.920;2022-07-23T10:23:43;1.10;;;1.00;;
42082;SDS011;27745;57.100;-2.920;2022-07-23T10:26:22;2.22;;;1.42;;
42082;SDS011;27745;57.100;-2.920;2022-07-23T10:40:10;1.45;;;1.35;;
42082;SDS011;27745;57.100;-2.920;2022-07-23T10:42:44;1.42;;;1.10;;
42082;SDS011;27745;57.100;-2.920;2022-07-23T10:48:11;2.33;;;1.35;;
42082;SDS011;27745;57.100;-2.920;2022-07-23T10:50:37;2.15;;;1.40;;
42082;SDS011;27745;57.100;-2.920;2022-07-23T10:58:00;2.95;;;1.00;;
42082;SDS011;27745;57.100;-2.920;2022-07-23T11:00:27;2.75;;;1.38;;
42082;SDS011;27745;57.100;-2.920;2022-07-23T11:02:55;2.13;;;1.20;;
42082;SDS011;27745;57.100;-2.920;2022-07-23T11:05:23;2.08;;;0.98;;
42082;SDS011;27745;57.100;-2.920;2022-07-23T11:08:13;2.25;;;1.38;;
42082;SDS011;27745;57.100;-2.920;2022-07-23T11:16:03;1.73;;;1.10;;
42082;SDS011;27745;57.100;-2.920;2022-07-23T11:31:57;1.95;;;1.50;;
42082;SDS011;27745;57.100;-2.920;2022-07-23T11:34:35;1.95;;;1.63;;
42082;SDS011;27745;57.100;-2.920;2022-07-23T11:37:11;2.33;;;1.55;;
42082;SDS011;27745;57.100;-2.920;2022-07-23T11:39:38;1.42;;;1.33;;
42082;SDS011;27745;57.100;-2.920;2022-07-23T11:42:04;1.05;;;0.80;;
42082;SDS011;27745;57.100;-2.920;2022-07-23T11:44:35;1.40;;;1.20;;
42082;SDS011;27745;57.100;-2.920;2022-07-23T11:47:07;2.78;;;1.73;;
42082;SDS011;27745;57.100;-2.920;2022-07-23T11:49:34;3.47;;;2.03;;
42082;SDS011;27745;57.100;-2.920;2022-07-23T11:54:40;1.42;;;1.30;;
42082;SDS011;27745;57.100;-2.920;2022-07-23T11:57:13;1.27;;;1.17;;
42082;SDS011;27745;57.100;-2.920;2022-07-23T11:59:39;1.80;;;1.67;;
42082;SDS011;27745;57.100;-2.920;2022-07-23T12:02:06;1.92;;;1.75;;
42082;SDS011;27745;57.100;-2.920;2022-07-23T12:04:42;2.78;;;1.90;;
42082;SDS011;27745;57.100;-2.920;2022-07-23T12:09:49;1.70;;;1.55;;
42082;SDS011;27745;57.100;-2.920;2022-07-23T12:12:15;1.95;;;1.70;;
42082;SDS011;27745;57.100;-2.920;2022-07-23T12:14:51;1.65;;;1.55;;
42082;SDS011;27745;57.100;-2.920;2022-07-23T12:17:20;2.22;;;1.58;;
42082;SDS011;27745;57.100;-2.920;2022-07-23T12:19:46;3.15;;;1.85;;
42082;SDS011;27745;57.100;-2.920;2022-07-23T12:22:12;2.00;;;1.30;;
42082;SDS011;27745;57.100;-2.920;2022-07-23T12:24:58;2.63;;;1.63;;
42082;SDS011;27745;57.100;-2.920;2022-07-23T12:27:26;1.40;;;1.30;;
42082;SDS011;27745;57.100;-2.920;2022-07-23T12:29:52;2.30;;;1.33;;
42082;SDS011;27745;57.100;-2.920;2022-07-23T12:35:01;2.42;;;1.80;;
42082;SDS011;27745;57.100;-2.920;2022-07-23T12:37:32;3.65;;;1.45;;
42082;SDS011;27745;57.100;-2.920;2022-07-23T12:42:45;1.75;;;1.52;;
42082;SDS011;27745;57.100;-2.920;2022-07-23T12:45:15;2.70;;;1.17;;
42082;SDS011;27745;57.100;-2.920;2022-07-23T12:48:00;2.60;;;1.58;;
42082;SDS011;27745;57.100;-2.920;2022-07-23T12:50:35;1.98;;;1.30;;
42082;SDS011;27745;57.100;-2.920;2022-07-23T12:54:04;1.40;;;1.30;;
42082;SDS011;27745;57.100;-2.920;2022-07-23T12:56:10;1.45;;;1.08;;
42082;SDS011;27745;57.100;-2.920;2022-07-23T12:58:41;1.35;;;1.15;;
42082;SDS011;27745;57.100;-2.920;2022-07-23T13:01:07;1.85;;;1.55;;
42082;SDS011;27745;57.100;-2.920;2022-07-23T13:03:41;1.58;;;1.45;;
42082;SDS011;27745;57.100;-2.920;2022-07-23T13:06:08;1.05;;;0.90;;
42082;SDS011;27745;57.100;-2.920;2022-07-23T13:08:35;1.00;;;0.95;;
42082;SDS011;27745;57.100;-2.920;2022-07-23T13:11:02;1.60;;;1.02;;
42082;SDS011;27745;57.100;-2.920;2022-07-23T13:13:30;1.15;;;0.88;;
42082;SDS011;27745;57.100;-2.920;2022-07-23T13:15:58;1.77;;;1.05;;
42082;SDS011;27745;57.100;-2.920;2022-07-23T13:18:24;2.50;;;1.20;;
42082;SDS011;27745;57.100;-2.920;2022-07-23T13:20:50;1.30;;;1.20;;
42082;SDS011;27745;57.100;-2.920;2022-07-23T13:23:16;1.20;;;1.10;;
42082;SDS011;27745;57.100;-2.920;2022-07-23T13:25:42;1.48;;;1.10;;
42082;SDS011;27745;57.100;-2.920;2022-07-23T13:28:08;3.80;;;1.10;;
42082;SDS011;27745;57.100;-2.920;2022-07-23T13:30:33;1.95;;;1.40;;
42082;SDS011;27745;57.100;-2.920;2022-07-23T13:33:00;2.13;;;1.40;;
42082;SDS011;27745;57.100;-2.920;2022-07-23T13:35:27;3.35;;;1.65;;
42082;SDS011;27745;57.100;-2.920;2022-07-23T13:37:52;1.65;;;1.40;;
42082;SDS011;27745;57.100;-2.920;2022-07-23T13:40:18;3.25;;;1.70;;
42082;SDS011;27745;57.100;-2.920;2022-07-23T13:42:43;1.27;;;1.10;;
42082;SDS011;27745;57.100;-2.920;2022-07-23T13:45:09;2.72;;;1.23;;
42082;SDS011;27745;57.100;-2.920;2022-07-23T13:47:35;1.88;;;1.20;;
42082;SDS011;27745;57.100;-2.920;2022-07-23T13:50:01;1.85;;;1.00;;
42082;SDS011;27745;57.100;-2.920;2022-07-23T13:52:26;1.20;;;0.90;;
42082;SDS011;27745;57.100;-2.920;2022-07-23T13:54:52;1.27;;;0.93;;
42082;SDS011;27745;57.100;-2.920;2022-07-23T13:57:17;1.13;;;1.02;;
42082;SDS011;27745;57.100;-2.920;2022-07-23T13:59:42;2.78;;;2.10;;
42082;SDS011;27745;57.100;-2.920;2022-07-23T14:02:08;1.67;;;1.23;;
42082;SDS011;27745;57.100;-2.920;2022-07-23T14:04:33;2.38;;;1.38;;
42082;SDS011;27745;57.100;-2.920;2022-07-23T14:06:59;1.95;;;1.33;;
42082;SDS011;27745;57.100;-2.920;2022-07-23T14:09:25;2.85;;;1.10;;
42082;SDS011;27745;57.100;-2.920;2022-07-23T14:11:51;0.93;;;0.90;;
42082;SDS011;27745;57.100;-2.920;2022-07-23T14:14:17;1.33;;;1.08;;
42082;SDS011;27745;57.100;-2.920;2022-07-23T14:16:43;1.00;;;0.88;;
42082;SDS011;27745;57.100;-2.920;2022-07-23T14:19:09;3.25;;;1.38;;
42082;SDS011;27745;57.100;-2.920;2022-07-23T14:21:36;1.30;;;1.20;;
42082;SDS011;27745;57.100;-2.920;2022-07-23T14:24:02;1.65;;;1.10;;
42082;SDS011;27745;57.100;-2.920;2022-07-23T14:26:28;1.73;;;1.40;;
42082;SDS011;27745;57.100;-2.920;2022-07-23T14:28:54;1.88;;;0.93;;
42082;SDS011;27745;57.100;-2.920;2022-07-23T14:31:19;1.33;;;1.23;;
42082;SDS011;27745;57.100;-2.920;2022-07-23T14:33:45;3.63;;;1.58;;
42082;SDS011;27745;57.100;-2.920;2022-07-23T14:36:10;2.50;;;1.40;;
42082;SDS011;27745;57.100;-2.920;2022-07-23T14:38:36;1.10;;;1.00;;
42082;SDS011;27745;57.100;-2.920;2022-07-23T14:41:01;3.72;;;1.45;;
42082;SDS011;27745;57.100;-2.920;2022-07-23T14:43:31;2.63;;;1.42;;
42082;SDS011;27745;57.100;-2.920;2022-07-23T14:45:57;1.65;;;1.10;;
42082;SDS011;27745;57.100;-2.920;2022-07-23T14:48:23;1.75;;;1.20;;
42082;SDS011;27745;57.100;-2.920;2022-07-23T14:50:48;1.33;;;1.23;;
42082;SDS011;27745;57.100;-2.920;2022-07-23T14:53:13;1.70;;;1.60;;
42082;SDS011;27745;57.100;-2.920;2022-07-23T14:55:39;2.15;;;1.27;;
42082;SDS011;27745;57.100;-2.920;2022-07-23T14:58:04;4.65;;;1.90;;
42082;SDS011;27745;57.100;-2.920;2022-07-23T15:00:30;4.05;;;1.73;;
42082;SDS011;27745;57.100;-2.920;2022-07-23T15:02:55;3.67;;;2.67;;
42082;SDS011;27745;57.100;-2.920;2022-07-23T15:05:21;3.60;;;1.88;;
42082;SDS011;27745;57.100;-2.920;2022-07-23T15:07:46;2.58;;;1.60;;
42082;SDS011;27745;57.100;-2.920;2022-07-23T15:10:12;1.63;;;1.52;;
42082;SDS011;27745;57.100;-2.920;2022-07-23T15:12:38;3.58;;;2.60;;
42082;SDS011;27745;57.100;-2.920;2022-07-23T15:15:04;3.90;;;2.55;;
42082;SDS011;27745;57.100;-2.920;2022-07-23T15:17:30;3.78;;;2.75;;
42082;SDS011;27745;57.100;-2.920;2022-07-23T15:19:57;3.80;;;2.25;;
42082;SDS011;27745;57.100;-2.920;2022-07-23T15:22:22;2.35;;;1.85;;
42082;SDS011;27745;57.100;-2.920;2022-07-23T15:24:48;3.88;;;3.03;;